Time;durP1;ratioP1;P1;durP2;ratioP2;P2;SDS_P1;SDS_P2;PMS_P1;PMS_P2;Temp;Humidity;BMP_temperature;BMP_pressure;BME280_temperature;BME280_humidity;BME280_pressure;Samples;Min_cycle;Max_cycle;Signal;HPM_P1;HPM_P2
2023/06/09 00:00:00;;;;;;;17.63;15.83;;;12.80;99.90;;;;;;5072053;28;20471;-67
2023/06/09 00:02:28;;;;;;;16.73;14.97;;;12.80;99.90;;;;;;5071217;28;20940;-66
2023/06/09 00:04:57;;;;;;;18.47;14.60;;;12.70;99.90;;;;;;5072287;28;20443;-66
2023/06/09 00:07:27;;;;;;;17.27;15.50;;;12.70;99.90;;;;;;5072005;28;20475;-67
2023/06/09 00:09:54;;;;;;;16.73;15.00;;;12.70;99.90;;;;;;5072172;28;20553;-66
2023/06/09 00:12:22;;;;;;;16.93;15.23;;;12.80;99.90;;;;;;5071153;28;20485;-66
2023/06/09 00:14:52;;;;;;;17.57;15.87;;;12.70;99.90;;;;;;5072056;28;20446;-66
2023/06/09 00:17:20;;;;;;;17.53;16.00;;;12.60;99.90;;;;;;5072236;28;20452;-66
2023/06/09 00:19:48;;;;;;;16.80;15.17;;;12.60;99.90;;;;;;5072064;28;20544;-66
2023/06/09 00:22:17;;;;;;;16.90;15.13;;;12.60;99.90;;;;;;5071595;28;20539;-66
2023/06/09 00:24:45;;;;;;;15.90;14.37;;;12.60;99.90;;;;;;5071239;28;20883;-67
2023/06/09 00:27:13;;;;;;;16.20;14.70;;;12.60;99.90;;;;;;5071779;28;20551;-67
2023/06/09 00:29:41;;;;;;;15.97;14.47;;;12.60;99.90;;;;;;5071890;28;20456;-66
2023/06/09 00:32:11;;;;;;;15.83;13.57;;;12.60;99.90;;;;;;5071592;28;20444;-66
2023/06/09 00:34:40;;;;;;;14.97;13.47;;;12.60;99.90;;;;;;5071210;28;20447;-66
2023/06/09 00:37:08;;;;;;;15.70;14.00;;;12.50;99.90;;;;;;5071771;28;20439;-66
2023/06/09 00:39:36;;;;;;;15.40;13.90;;;12.60;99.90;;;;;;5071367;28;20462;-67
2023/06/09 00:42:05;;;;;;;15.20;13.77;;;12.60;99.90;;;;;;5071695;28;20440;-67
2023/06/09 00:44:33;;;;;;;15.30;13.90;;;12.60;99.90;;;;;;5070600;28;20446;-67
2023/06/09 00:47:01;;;;;;;15.83;14.43;;;12.60;99.90;;;;;;5071551;28;20482;-67
2023/06/09 00:49:30;;;;;;;15.20;13.73;;;12.50;99.90;;;;;;5071399;28;20466;-67
2023/06/09 00:51:59;;;;;;;16.80;15.30;;;12.50;99.90;;;;;;5071301;28;20510;-66
2023/06/09 00:54:28;;;;;;;19.40;16.00;;;12.50;99.90;;;;;;5070171;28;20529;-67
2023/06/09 00:56:56;;;;;;;20.07;17.97;;;12.50;99.90;;;;;;5070931;28;20497;-67
2023/06/09 00:59:28;;;;;;;16.90;15.23;;;12.40;99.90;;;;;;5071195;28;20467;-67
2023/06/09 01:01:56;;;;;;;17.43;15.83;;;12.40;99.90;;;;;;5071311;28;20814;-68
2023/06/09 01:04:24;;;;;;;17.27;15.57;;;12.30;99.90;;;;;;5069926;28;20547;-68
2023/06/09 01:07:00;;;;;;;17.20;15.70;;;12.30;99.90;;;;;;5071160;28;20856;-66
2023/06/09 01:09:34;;;;;;;17.40;15.70;;;12.20;99.90;;;;;;5071099;28;20851;-67
2023/06/09 01:12:12;;;;;;;18.47;16.67;;;12.30;99.90;;;;;;5070793;28;20954;-67
2023/06/09 01:14:47;;;;;;;16.80;15.23;;;12.20;99.90;;;;;;5070289;28;20540;-66
2023/06/09 01:17:19;;;;;;;17.10;15.50;;;12.10;99.90;;;;;;5071155;28;20427;-66
2023/06/09 01:19:50;;;;;;;20.17;17.37;;;12.00;99.90;;;;;;5070960;28;20460;-67
2023/06/09 01:22:28;;;;;;;18.70;16.80;;;12.20;99.90;;;;;;5070371;28;20457;-67
2023/06/09 01:25:06;;;;;;;18.30;16.50;;;12.10;99.90;;;;;;5070700;28;20443;-67
2023/06/09 01:27:39;;;;;;;19.43;17.50;;;12.10;99.90;;;;;;5070552;28;20482;-67
2023/06/09 01:30:10;;;;;;;19.70;17.30;;;12.10;99.90;;;;;;5070733;28;20542;-67
2023/06/09 01:32:40;;;;;;;18.27;15.63;;;12.00;99.90;;;;;;5069406;28;20558;-67
2023/06/09 01:35:10;;;;;;;18.00;16.30;;;12.00;99.90;;;;;;5070867;28;20556;-67
2023/06/09 01:37:38;;;;;;;15.63;14.13;;;11.90;99.90;;;;;;5070455;28;20973;-66
2023/06/09 01:40:09;;;;;;;16.70;15.00;;;11.90;99.90;;;;;;5070513;28;20569;-66
2023/06/09 01:42:38;;;;;;;17.03;15.33;;;11.90;99.90;;;;;;5069301;28;20445;-66
2023/06/09 01:45:07;;;;;;;18.67;16.87;;;12.00;99.90;;;;;;5070512;28;20997;-66
2023/06/09 01:47:36;;;;;;;19.53;17.47;;;12.00;99.90;;;;;;5070272;28;20579;-67
2023/06/09 01:50:08;;;;;;;17.20;15.60;;;12.00;99.90;;;;;;5070360;28;20537;-66
2023/06/09 01:52:41;;;;;;;15.53;14.03;;;12.10;99.90;;;;;;5069195;28;20442;-66
2023/06/09 01:55:15;;;;;;;21.53;19.43;;;12.00;99.90;;;;;;5070336;28;20501;-67
2023/06/09 01:57:51;;;;;;;16.70;15.10;;;12.00;99.90;;;;;;5070451;28;20446;-67
2023/06/09 02:00:23;;;;;;;18.27;16.37;;;11.90;99.90;;;;;;5070258;28;20459;-66
2023/06/09 02:02:55;;;;;;;19.27;17.37;;;11.70;99.90;;;;;;5068007;28;20442;-66
2023/06/09 02:05:24;;;;;;;18.30;16.40;;;11.70;99.90;;;;;;5070207;28;20980;-67
2023/06/09 02:07:53;;;;;;;18.77;16.77;;;11.70;99.90;;;;;;5070225;28;20483;-67
2023/06/09 02:10:22;;;;;;;16.67;15.07;;;11.80;99.90;;;;;;5070077;28;20469;-66
2023/06/09 02:12:51;;;;;;;17.80;16.20;;;11.80;99.90;;;;;;5069057;28;20445;-67
2023/06/09 02:15:19;;;;;;;17.90;16.17;;;11.80;99.90;;;;;;5070134;28;20434;-67
2023/06/09 02:17:47;;;;;;;18.20;16.40;;;11.80;99.90;;;;;;5069966;28;20932;-67
2023/06/09 02:20:15;;;;;;;18.43;16.43;;;11.90;99.90;;;;;;5070280;28;20472;-67
2023/06/09 02:22:43;;;;;;;20.17;17.20;;;11.90;99.90;;;;;;5068803;28;21233;-66
2023/06/09 02:25:11;;;;;;;18.90;17.10;;;11.80;99.90;;;;;;5069921;28;20944;-67
2023/06/09 02:27:39;;;;;;;18.83;17.03;;;11.80;99.90;;;;;;5069627;28;20533;-67
2023/06/09 02:30:09;;;;;;;18.57;16.87;;;11.70;99.90;;;;;;5069932;28;20461;-67
2023/06/09 02:32:37;;;;;;;23.30;17.77;;;11.80;99.90;;;;;;5068874;28;20440;-67
2023/06/09 02:35:06;;;;;;;16.80;15.20;;;11.80;99.90;;;;;;5069796;28;20446;-67
2023/06/09 02:37:35;;;;;;;18.60;16.80;;;11.60;99.90;;;;;;5069763;28;20538;-67
2023/06/09 02:40:04;;;;;;;18.47;16.73;;;11.60;99.90;;;;;;5069479;28;20878;-67
2023/06/09 02:42:32;;;;;;;19.00;16.90;;;11.50;99.90;;;;;;5068511;28;20545;-67
2023/06/09 02:45:00;;;;;;;18.83;16.93;;;11.50;99.90;;;;;;5069674;28;20504;-68
2023/06/09 02:47:30;;;;;;;18.57;16.17;;;11.40;99.90;;;;;;5069728;28;20457;-67
2023/06/09 02:49:57;;;;;;;18.00;16.43;;;11.50;99.90;;;;;;5069467;28;20568;-67
2023/06/09 02:52:28;;;;;;;21.10;17.67;;;11.40;99.90;;;;;;5068433;28;20452;-67
2023/06/09 02:54:56;;;;;;;20.67;18.47;;;11.40;99.90;;;;;;5069192;28;20450;-67
2023/06/09 02:57:24;;;;;;;18.60;16.80;;;11.50;99.90;;;;;;5069400;28;20445;-67
2023/06/09 02:59:52;;;;;;;18.23;16.47;;;11.40;99.90;;;;;;5069914;28;20882;-67
2023/06/09 03:02:20;;;;;;;21.03;18.93;;;11.40;99.90;;;;;;5069333;28;20445;-67
2023/06/09 03:04:52;;;;;;;21.23;18.40;;;11.30;99.90;;;;;;5069133;28;20448;-67
2023/06/09 03:07:20;;;;;;;19.13;17.23;;;11.40;99.90;;;;;;5069680;28;20856;-67
2023/06/09 03:09:49;;;;;;;19.20;17.00;;;11.50;99.90;;;;;;5069727;28;20488;-67
2023/06/09 03:12:17;;;;;;;18.00;16.10;;;11.50;99.90;;;;;;5068995;28;20456;-67
2023/06/09 03:14:45;;;;;;;17.97;15.60;;;11.50;99.90;;;;;;5068680;28;20536;-68
2023/06/09 03:17:13;;;;;;;20.10;17.10;;;11.40;99.90;;;;;;5069359;28;20439;-68
2023/06/09 03:19:41;;;;;;;18.33;16.53;;;11.50;99.90;;;;;;5071829;28;20467;-67
2023/06/09 03:22:10;;;;;;;19.93;18.10;;;11.50;99.90;;;;;;5072560;28;20449;-67
2023/06/09 03:24:39;;;;;;;18.40;16.50;;;11.40;99.90;;;;;;5072414;28;20527;-67
2023/06/09 03:27:07;;;;;;;19.50;17.20;;;11.30;99.90;;;;;;5072977;28;20445;-67
2023/06/09 03:29:35;;;;;;;23.67;18.97;;;11.30;99.90;;;;;;5072774;28;20554;-68
2023/06/09 03:32:03;;;;;;;18.07;16.23;;;11.20;99.90;;;;;;5072683;28;20452;-68
2023/06/09 03:34:31;;;;;;;17.93;16.13;;;11.20;99.90;;;;;;5071870;28;20436;-67
2023/06/09 03:36:59;;;;;;;17.57;15.80;;;11.30;99.90;;;;;;5072964;28;20509;-68
2023/06/09 03:39:29;;;;;;;17.83;16.23;;;11.40;99.90;;;;;;5072832;28;20973;-68
2023/06/09 03:41:57;;;;;;;17.97;16.07;;;11.50;99.90;;;;;;5072685;28;20448;-68
2023/06/09 03:44:25;;;;;;;17.90;16.30;;;11.60;99.90;;;;;;5071530;28;20468;-68
2023/06/09 03:46:53;;;;;;;19.90;17.37;;;11.40;99.90;;;;;;5072397;28;20820;-68
2023/06/09 03:49:21;;;;;;;19.77;17.80;;;11.60;99.90;;;;;;5072643;28;20489;-68
2023/06/09 03:51:49;;;;;;;18.40;16.60;;;11.60;99.90;;;;;;5072648;28;20451;-68
2023/06/09 03:54:16;;;;;;;17.47;15.87;;;11.60;99.90;;;;;;5070774;28;20947;-68
2023/06/09 03:56:46;;;;;;;16.63;15.13;;;11.50;99.90;;;;;;5072528;28;20468;-68
2023/06/09 03:59:14;;;;;;;16.97;15.27;;;11.50;99.90;;;;;;5072365;28;20853;-68
2023/06/09 04:01:42;;;;;;;18.10;16.30;;;11.50;99.90;;;;;;5072339;28;20441;-68
2023/06/09 04:04:11;;;;;;;18.90;17.10;;;11.60;99.90;;;;;;5071450;28;20451;-65
2023/06/09 04:06:45;;;;;;;18.77;16.93;;;11.50;99.90;;;;;;5072552;28;20444;-67
2023/06/09 04:09:14;;;;;;;17.60;15.90;;;11.60;99.90;;;;;;5072093;28;20483;-67
2023/06/09 04:11:42;;;;;;;17.17;15.40;;;11.60;99.90;;;;;;5072378;28;20533;-66
2023/06/09 04:14:11;;;;;;;18.20;16.33;;;11.70;99.90;;;;;;5071129;28;20445;-67
2023/06/09 04:16:39;;;;;;;17.87;15.93;;;11.70;99.90;;;;;;5072586;28;20461;-67
2023/06/09 04:19:08;;;;;;;16.93;15.40;;;11.90;99.90;;;;;;5072279;28;20491;-66
2023/06/09 04:21:37;;;;;;;16.57;15.07;;;12.00;99.90;;;;;;5072374;28;20540;-67
2023/06/09 04:24:08;;;;;;;16.33;14.70;;;12.00;99.90;;;;;;5070927;28;20458;-67
2023/06/09 04:26:37;;;;;;;16.50;15.07;;;12.10;99.90;;;;;;5072051;28;20453;-67
2023/06/09 04:29:09;;;;;;;16.80;15.20;;;12.20;99.90;;;;;;5071962;28;20474;-66
2023/06/09 04:31:42;;;;;;;18.20;16.40;;;12.20;99.90;;;;;;5070996;28;20431;-67
2023/06/09 04:34:12;;;;;;;17.63;15.80;;;12.10;99.90;;;;;;5070766;28;20435;-67
2023/06/09 04:36:41;;;;;;;18.07;16.37;;;12.10;99.90;;;;;;5071755;28;20441;-67
2023/06/09 04:39:12;;;;;;;20.30;18.37;;;12.10;99.90;;;;;;5071495;28;20999;-67
2023/06/09 04:41:40;;;;;;;19.87;17.97;;;12.20;99.90;;;;;;5071843;28;20440;-67
2023/06/09 04:44:08;;;;;;;17.70;15.93;;;12.30;99.90;;;;;;5070539;28;20893;-67
2023/06/09 04:46:37;;;;;;;18.60;16.40;;;12.40;99.90;;;;;;5071582;28;20447;-66
2023/06/09 04:49:09;;;;;;;15.87;14.47;;;12.50;99.90;;;;;;5071324;28;20505;-67
2023/06/09 04:51:41;;;;;;;17.53;15.83;;;12.60;99.90;;;;;;5071427;28;21020;-67
2023/06/09 04:54:10;;;;;;;19.80;17.70;;;12.60;99.90;;;;;;5070289;28;20813;-67
2023/06/09 04:56:38;;;;;;;22.33;17.90;;;12.60;99.90;;;;;;5071536;28;20449;-67
2023/06/09 04:59:07;;;;;;;18.63;16.70;;;12.60;99.90;;;;;;5071359;28;20517;-67
2023/06/09 05:01:35;;;;;;;18.83;17.03;;;12.80;99.90;;;;;;5071230;28;20816;-67
2023/06/09 05:04:03;;;;;;;16.97;15.30;;;13.00;99.90;;;;;;5069927;28;20795;-67
2023/06/09 05:06:32;;;;;;;16.07;14.50;;;13.20;99.90;;;;;;5071160;28;21012;-68
2023/06/09 05:09:00;;;;;;;17.70;16.07;;;13.20;99.90;;;;;;5070851;28;20530;-67
2023/06/09 05:11:28;;;;;;;18.00;16.30;;;13.30;99.90;;;;;;5071191;28;20449;-67
2023/06/09 05:13:56;;;;;;;18.87;17.17;;;13.30;99.90;;;;;;5069783;28;20990;-67
2023/06/09 05:16:25;;;;;;;18.87;17.27;;;13.40;99.90;;;;;;5070893;28;20945;-67
2023/06/09 05:18:53;;;;;;;18.00;16.40;;;13.50;99.90;;;;;;5070759;28;20883;-67
2023/06/09 05:21:23;;;;;;;18.07;16.53;;;13.60;99.90;;;;;;5070794;28;20443;-68
2023/06/09 05:23:52;;;;;;;19.50;17.67;;;13.70;99.90;;;;;;5069823;28;20496;-67
2023/06/09 05:26:21;;;;;;;18.07;16.37;;;13.70;99.90;;;;;;5070798;28;20855;-67
2023/06/09 05:28:49;;;;;;;18.60;16.90;;;13.70;99.90;;;;;;5070720;28;20496;-67
2023/06/09 05:31:17;;;;;;;18.73;16.83;;;13.80;99.90;;;;;;5070289;28;20479;-67
2023/06/09 05:33:45;;;;;;;19.70;17.90;;;13.80;99.90;;;;;;5069598;28;21011;-67
2023/06/09 05:36:13;;;;;;;20.20;18.10;;;13.90;99.90;;;;;;5070708;28;20478;-66
2023/06/09 05:38:41;;;;;;;17.90;16.20;;;14.10;99.90;;;;;;5070642;28;20948;-66
2023/06/09 05:41:14;;;;;;;19.57;17.63;;;14.20;99.90;;;;;;5070292;28;21151;-67
2023/06/09 05:43:42;;;;;;;19.13;17.33;;;14.30;99.90;;;;;;5069453;28;20527;-67
2023/06/09 05:46:10;;;;;;;18.97;17.37;;;14.40;99.90;;;;;;5070795;28;20439;-67
2023/06/09 05:48:38;;;;;;;19.13;17.40;;;14.50;99.90;;;;;;5070745;28;21014;-67
2023/06/09 05:51:06;;;;;;;19.10;17.13;;;14.50;99.90;;;;;;5070526;28;20514;-67
2023/06/09 05:53:34;;;;;;;20.20;18.20;;;14.60;99.90;;;;;;5069935;28;20448;-67
2023/06/09 05:56:02;;;;;;;19.57;17.50;;;14.70;99.90;;;;;;5070444;28;20438;-68
2023/06/09 05:58:33;;;;;;;18.60;17.00;;;14.70;99.90;;;;;;5070455;28;20440;-66
2023/06/09 06:01:03;;;;;;;19.80;17.83;;;14.90;99.90;;;;;;5070653;28;20456;-66
2023/06/09 06:03:32;;;;;;;18.83;17.20;;;15.00;99.90;;;;;;5069286;28;20451;-67
2023/06/09 06:06:01;;;;;;;19.57;17.87;;;15.20;99.90;;;;;;5070322;28;20452;-67
2023/06/09 06:08:29;;;;;;;18.20;16.50;;;15.30;99.90;;;;;;5070484;28;20449;-67
2023/06/09 06:10:57;;;;;;;18.90;17.30;;;15.30;99.90;;;;;;5070533;28;21040;-66
2023/06/09 06:13:25;;;;;;;17.80;16.27;;;15.40;99.90;;;;;;5069366;28;20469;-67
2023/06/09 06:15:54;;;;;;;17.53;15.90;;;15.60;99.90;;;;;;5070491;28;20441;-67
2023/06/09 06:18:22;;;;;;;18.03;16.37;;;15.70;99.90;;;;;;5070516;28;20450;-67
2023/06/09 06:20:50;;;;;;;19.30;17.50;;;15.90;99.90;;;;;;5070517;28;20452;-67
2023/06/09 06:23:18;;;;;;;18.07;16.23;;;16.00;99.90;;;;;;5069342;28;20938;-67
2023/06/09 06:25:46;;;;;;;18.50;16.70;;;16.10;99.90;;;;;;5070859;28;20442;-67
2023/06/09 06:28:15;;;;;;;18.43;16.83;;;16.00;99.90;;;;;;5070227;28;20445;-67
2023/06/09 06:30:43;;;;;;;18.30;16.67;;;16.10;99.90;;;;;;5070671;28;20642;-68
2023/06/09 06:33:12;;;;;;;16.37;14.97;;;16.20;99.90;;;;;;5069138;28;20475;-67
2023/06/09 06:35:40;;;;;;;18.07;16.33;;;16.30;99.90;;;;;;5070512;28;20589;-68
2023/06/09 06:38:08;;;;;;;16.10;14.73;;;16.40;99.90;;;;;;5070776;28;20545;-66
2023/06/09 06:40:36;;;;;;;15.07;13.80;;;16.60;99.90;;;;;;5070346;28;21034;-67
2023/06/09 06:43:04;;;;;;;16.90;15.30;;;16.60;99.90;;;;;;5069355;28;20443;-66
2023/06/09 06:45:32;;;;;;;16.27;14.77;;;16.80;99.90;;;;;;5070160;28;20465;-66
2023/06/09 06:48:00;;;;;;;15.93;14.63;;;16.90;99.90;;;;;;5070067;28;21003;-67
2023/06/09 06:50:29;;;;;;;16.37;14.77;;;17.00;99.90;;;;;;5069588;28;20525;-67
2023/06/09 06:52:57;;;;;;;14.53;13.37;;;17.20;99.90;;;;;;5068471;28;20442;-66
2023/06/09 06:55:25;;;;;;;16.43;15.00;;;17.20;99.90;;;;;;5073442;28;21051;-67
2023/06/09 06:57:57;;;;;;;15.80;14.30;;;17.30;99.90;;;;;;5073751;28;20813;-67
2023/06/09 07:00:27;;;;;;;16.47;15.03;;;17.50;99.90;;;;;;5073502;28;20463;-67
2023/06/09 07:02:56;;;;;;;15.13;13.83;;;17.70;99.90;;;;;;5072147;28;20492;-67
2023/06/09 07:05:25;;;;;;;16.00;14.70;;;17.80;99.90;;;;;;5073543;28;20439;-67
2023/06/09 07:07:54;;;;;;;14.80;13.50;;;17.90;99.90;;;;;;5073459;28;20497;-68
2023/06/09 07:10:22;;;;;;;14.50;13.30;;;18.10;99.90;;;;;;5073264;28;20577;-67
2023/06/09 07:12:50;;;;;;;13.47;12.37;;;18.30;99.90;;;;;;5072217;28;20867;-67
2023/06/09 07:15:18;;;;;;;13.20;12.07;;;18.50;99.90;;;;;;5073197;28;20500;-67
2023/06/09 07:17:46;;;;;;;14.17;12.97;;;18.60;99.90;;;;;;5073481;28;20465;-67
2023/06/09 07:20:14;;;;;;;11.47;10.53;;;18.70;99.90;;;;;;5073051;28;20474;-68
2023/06/09 07:22:42;;;;;;;10.93;10.03;;;18.80;99.30;;;;;;5072191;28;20538;-67
2023/06/09 07:25:12;;;;;;;10.13;9.33;;;18.80;99.20;;;;;;5073036;28;20493;-67
2023/06/09 07:27:40;;;;;;;11.40;10.40;;;18.90;99.60;;;;;;5072939;28;20443;-67
2023/06/09 07:30:09;;;;;;;17.93;10.97;;;19.10;99.70;;;;;;5072816;28;20467;-67
2023/06/09 07:32:39;;;;;;;13.00;10.23;;;19.20;98.50;;;;;;5072030;28;20463;-67
2023/06/09 07:35:08;;;;;;;11.57;10.57;;;19.40;97.10;;;;;;5072755;28;20471;-67
2023/06/09 07:37:39;;;;;;;11.70;10.70;;;19.70;96.30;;;;;;5073069;28;20439;-67
2023/06/09 07:40:09;;;;;;;11.20;10.20;;;19.80;94.30;;;;;;5072849;28;20455;-67
2023/06/09 07:42:49;;;;;;;10.67;9.77;;;19.90;94.30;;;;;;5071808;28;20438;-67
2023/06/09 07:45:18;;;;;;;10.67;9.67;;;20.10;94.80;;;;;;5072713;28;20432;-66
2023/06/09 07:47:46;;;;;;;10.60;9.60;;;20.30;93.60;;;;;;5072757;28;20473;-67
2023/06/09 07:50:14;;;;;;;10.37;9.53;;;20.40;93.00;;;;;;5072735;28;20463;-66
2023/06/09 07:52:41;;;;;;;8.63;7.93;;;20.50;93.50;;;;;;5071435;28;21004;-67
2023/06/09 07:55:09;;;;;;;8.90;8.10;;;20.60;92.20;;;;;;5072564;28;20462;-67
2023/06/09 07:57:43;;;;;;;9.60;8.80;;;20.80;91.00;;;;;;5072343;28;20979;-68
2023/06/09 08:00:15;;;;;;;9.37;8.57;;;20.80;89.60;;;;;;5072547;28;20462;-67
2023/06/09 08:02:43;;;;;;;9.48;8.70;;;21.10;88.00;;;;;;5069959;28;20462;-67
2023/06/09 08:05:11;;;;;;;10.60;8.10;;;21.20;88.00;;;;;;5072127;28;20227;-67
2023/06/09 08:07:40;;;;;;;9.30;8.40;;;21.40;87.40;;;;;;5072254;28;20956;-67
2023/06/09 08:10:08;;;;;;;8.97;8.17;;;21.50;86.00;;;;;;5072448;28;20462;-67
2023/06/09 08:12:37;;;;;;;8.20;7.50;;;21.70;86.40;;;;;;5071126;28;20522;-67
2023/06/09 08:15:06;;;;;;;7.53;6.90;;;21.80;87.00;;;;;;5072556;28;20517;-67
2023/06/09 08:17:36;;;;;;;7.70;7.10;;;21.90;85.10;;;;;;5072252;28;20445;-68
2023/06/09 08:20:05;;;;;;;8.33;7.63;;;22.00;86.90;;;;;;5072169;28;20463;-67
2023/06/09 08:22:34;;;;;;;7.10;6.60;;;22.10;87.60;;;;;;5071224;28;20443;-67
2023/06/09 08:25:03;;;;;;;7.90;7.30;;;22.30;86.10;;;;;;5072280;28;20443;-67
2023/06/09 08:27:31;;;;;;;8.00;7.30;;;22.40;84.60;;;;;;5072208;28;20459;-67
2023/06/09 08:29:59;;;;;;;8.43;7.70;;;22.50;86.90;;;;;;5071853;28;20873;-66
2023/06/09 08:32:27;;;;;;;9.27;8.57;;;22.80;82.90;;;;;;5070431;28;20497;-66
2023/06/09 08:35:03;;;;;;;7.87;7.27;;;22.80;82.20;;;;;;5072058;28;20447;-67
2023/06/09 08:37:32;;;;;;;8.60;7.80;;;22.80;84.90;;;;;;5071713;28;20435;-67
2023/06/09 08:40:04;;;;;;;8.20;6.27;;;22.90;81.60;;;;;;5071685;28;20459;-68
2023/06/09 08:42:32;;;;;;;7.97;6.67;;;23.00;81.50;;;;;;5070610;28;20439;-68
2023/06/09 08:45:03;;;;;;;6.47;5.97;;;23.10;78.90;;;;;;5071428;28;20439;-68
2023/06/09 08:47:37;;;;;;;6.10;5.60;;;23.20;80.80;;;;;;5071861;28;20788;-67
2023/06/09 08:50:08;;;;;;;6.10;5.60;;;23.30;73.50;;;;;;5071520;28;20528;-68
2023/06/09 08:52:38;;;;;;;6.47;5.80;;;23.30;70.50;;;;;;5070416;28;20539;-67
2023/06/09 08:55:08;;;;;;;6.00;5.27;;;23.40;73.60;;;;;;5071097;28;20457;-68
2023/06/09 08:57:36;;;;;;;6.30;5.83;;;23.50;72.90;;;;;;5071461;28;20423;-67
2023/06/09 09:00:11;;;;;;;6.10;5.60;;;23.80;74.60;;;;;;5071546;28;20474;-68
2023/06/09 09:02:39;;;;;;;5.40;4.97;;;23.90;75.50;;;;;;5070357;28;20439;-67
2023/06/09 09:05:09;;;;;;;5.23;4.83;;;24.10;76.70;;;;;;5071509;28;20985;-67
2023/06/09 09:07:37;;;;;;;5.77;5.23;;;24.20;74.80;;;;;;5071371;28;20518;-68
2023/06/09 09:10:06;;;;;;;5.03;4.70;;;24.30;74.90;;;;;;5070955;28;20470;-68
2023/06/09 09:12:49;;;;;;;5.67;5.17;;;24.50;74.70;;;;;;5070001;28;21346;-67
2023/06/09 09:15:17;;;;;;;6.10;5.70;;;24.70;75.40;;;;;;5071055;28;20449;-68
2023/06/09 09:17:46;;;;;;;6.83;6.33;;;24.80;74.90;;;;;;5070164;28;20801;-67
2023/06/09 09:20:16;;;;;;;5.90;5.40;;;25.00;69.70;;;;;;5070684;28;20459;-67
2023/06/09 09:22:46;;;;;;;5.97;5.33;;;25.10;68.80;;;;;;5069613;28;20431;-67
2023/06/09 09:25:25;;;;;;;5.30;4.87;;;25.10;68.60;;;;;;5070728;28;20446;-68
2023/06/09 09:28:00;;;;;;;5.10;4.70;;;25.20;71.20;;;;;;5070668;28;20972;-68
2023/06/09 09:30:45;;;;;;;5.97;5.37;;;25.20;70.00;;;;;;5070581;28;20493;-69
2023/06/09 09:33:15;;;;;;;5.40;5.00;;;25.30;70.20;;;;;;5069324;28;20977;-68
2023/06/09 09:35:50;;;;;;;5.07;4.67;;;25.60;70.50;;;;;;5070744;28;20437;-68
2023/06/09 09:38:20;;;;;;;5.90;5.40;;;25.70;68.50;;;;;;5070595;28;20435;-68
2023/06/09 09:40:50;;;;;;;5.57;5.17;;;25.80;68.30;;;;;;5070348;28;20466;-68
2023/06/09 09:43:19;;;;;;;6.57;5.97;;;25.90;61.50;;;;;;5069503;28;20802;-68
2023/06/09 09:45:49;;;;;;;7.50;5.70;;;26.10;64.90;;;;;;5070288;28;20852;-68
2023/06/09 09:48:19;;;;;;;6.87;5.60;;;26.20;65.80;;;;;;5070457;28;20476;-69
2023/06/09 09:50:50;;;;;;;5.97;5.53;;;26.40;65.10;;;;;;5070311;28;20467;-69
2023/06/09 09:53:22;;;;;;;4.97;4.60;;;26.50;63.40;;;;;;5068919;28;20515;-68
2023/06/09 09:55:52;;;;;;;5.30;4.90;;;26.70;62.90;;;;;;5070014;28;21187;-69
2023/06/09 09:58:30;;;;;;;5.77;5.17;;;26.90;64.10;;;;;;5070175;28;20442;-69
2023/06/09 10:01:00;;;;;;;6.00;5.50;;;27.30;60.10;;;;;;5070166;28;20458;-68
2023/06/09 10:03:29;;;;;;;5.60;4.97;;;28.20;58.00;;;;;;5068907;28;20446;-69
2023/06/09 10:06:01;;;;;;;5.57;5.10;;;28.50;55.40;;;;;;5070158;28;20443;-69
2023/06/09 10:08:31;;;;;;;5.53;5.10;;;28.90;52.80;;;;;;5070285;28;20484;-69
2023/06/09 10:11:00;;;;;;;5.70;5.30;;;29.50;53.40;;;;;;5069869;28;20478;-69
2023/06/09 10:13:31;;;;;;;5.03;4.63;;;29.80;50.80;;;;;;5068790;28;20475;-69
2023/06/09 10:16:01;;;;;;;4.67;4.37;;;30.00;47.70;;;;;;5069900;28;20447;-68
2023/06/09 10:18:29;;;;;;;4.70;4.40;;;30.00;50.10;;;;;;5069888;28;20939;-69
2023/06/09 10:20:58;;;;;;;5.07;4.70;;;30.30;52.00;;;;;;5069955;28;20455;-69
2023/06/09 10:23:28;;;;;;;4.90;4.50;;;30.60;49.10;;;;;;5068714;28;20438;-70
2023/06/09 10:25:57;;;;;;;4.40;4.10;;;30.90;50.00;;;;;;5069959;28;20463;-69
2023/06/09 10:28:25;;;;;;;5.10;4.70;;;31.10;50.20;;;;;;5068785;28;21019;-68
2023/06/09 10:30:56;;;;;;;3.90;3.70;;;31.40;49.40;;;;;;5069787;28;20498;-69
2023/06/09 10:33:28;;;;;;;4.40;4.10;;;31.80;48.90;;;;;;5068384;28;20525;-69
2023/06/09 10:35:58;;;;;;;4.83;4.53;;;32.00;46.50;;;;;;5070139;28;20485;-69
2023/06/09 10:38:30;;;;;;;5.00;4.70;;;32.20;43.90;;;;;;5069836;28;20518;-69
2023/06/09 10:41:10;;;;;;;4.50;4.10;;;32.30;44.20;;;;;;5069658;28;20479;-68
2023/06/09 10:43:52;;;;;;;4.03;3.73;;;32.60;44.40;;;;;;5068261;28;20490;-69
2023/06/09 10:46:42;;;;;;;4.43;4.13;;;32.90;42.00;;;;;;5069659;28;20427;-68
2023/06/09 10:49:36;;;;;;;4.10;3.80;;;33.30;46.20;;;;;;5069575;28;21151;-68
2023/06/09 10:52:05;;;;;;;3.83;3.57;;;33.60;43.20;;;;;;5069337;28;20981;-68
2023/06/09 10:54:36;;;;;;;4.13;3.83;;;34.10;40.80;;;;;;5068667;28;20470;-69
2023/06/09 10:57:06;;;;;;;3.57;3.23;;;34.00;41.60;;;;;;5069748;28;20443;-69
2023/06/09 11:00:14;;;;;;;4.17;3.87;;;34.00;38.40;;;;;;5069681;28;20462;-69
2023/06/09 11:02:44;;;;;;;4.00;3.70;;;34.30;43.50;;;;;;5068776;28;20829;-69
2023/06/09 11:05:13;;;;;;;4.43;4.10;;;34.20;40.00;;;;;;5069829;28;20530;-69
2023/06/09 11:07:47;;;;;;;4.10;3.80;;;33.90;42.30;;;;;;5069610;28;20989;-69
2023/06/09 11:10:38;;;;;;;4.10;3.80;;;33.70;37.60;;;;;;5069414;28;20489;-69
2023/06/09 11:13:38;;;;;;;4.50;4.10;;;33.50;37.00;;;;;;5068153;28;20514;-68
2023/06/09 11:16:09;;;;;;;4.67;4.30;;;33.00;38.40;;;;;;5069608;28;20482;-69
2023/06/09 11:18:38;;;;;;;4.30;3.90;;;32.90;40.70;;;;;;5069700;28;20443;-68
2023/06/09 11:21:11;;;;;;;4.50;4.10;;;33.10;43.10;;;;;;5069433;28;20467;-69
2023/06/09 11:24:01;;;;;;;3.70;3.40;;;33.60;42.50;;;;;;5068283;28;20447;-69
2023/06/09 11:26:32;;;;;;;4.13;3.83;;;33.90;42.30;;;;;;5060588;28;20534;-69
2023/06/09 11:29:15;;;;;;;3.80;3.43;;;34.20;37.00;;;;;;5069518;28;20434;-69
2023/06/09 11:31:48;;;;;;;4.43;4.03;;;34.60;38.50;;;;;;5069428;28;20450;-70
2023/06/09 11:35:04;;;;;;;3.57;3.37;;;35.00;37.30;;;;;;5067956;28;20884;-70
2023/06/09 11:37:33;;;;;;;4.13;3.20;;;35.50;35.70;;;;;;5069292;28;20517;-70
2023/06/09 11:40:04;;;;;;;4.03;3.73;;;35.80;40.00;;;;;;5070540;28;20463;-70
2023/06/09 11:42:34;;;;;;;4.03;3.70;;;36.40;38.50;;;;;;5071869;28;20463;-70
2023/06/09 11:45:03;;;;;;;4.00;3.70;;;36.70;36.60;;;;;;5072647;28;20438;-70
2023/06/09 11:47:31;;;;;;;3.30;3.07;;;36.90;37.00;;;;;;5072808;28;20994;-70
2023/06/09 11:50:05;;;;;;;4.30;3.90;;;36.60;35.30;;;;;;5072548;28;20914;-69
2023/06/09 11:52:34;;;;;;;4.30;3.90;;;36.40;32.50;;;;;;5071434;28;20957;-68
2023/06/09 11:55:04;;;;;;;3.87;3.57;;;35.90;32.70;;;;;;5072452;28;20557;-68
2023/06/09 11:57:35;;;;;;;3.60;3.30;;;35.80;35.70;;;;;;5072590;28;20435;-68
2023/06/09 12:00:12;;;;;;;3.77;3.47;;;36.60;35.60;;;;;;5072487;28;20882;-68
2023/06/09 12:02:41;;;;;;;4.30;3.90;;;37.20;35.00;;;;;;5071091;28;20812;-68
2023/06/09 12:05:10;;;;;;;3.90;3.60;;;36.50;34.10;;;;;;5072683;28;20451;-68
2023/06/09 12:07:41;;;;;;;5.00;4.53;;;34.90;34.50;;;;;;5072439;28;20438;-69
2023/06/09 12:10:10;;;;;;;4.13;3.87;;;32.70;37.00;;;;;;5072285;28;21030;-68
2023/06/09 12:12:48;;;;;;;4.07;3.70;;;31.40;41.90;;;;;;5071069;28;21021;-68
2023/06/09 12:15:18;;;;;;;4.20;3.77;;;30.60;40.60;;;;;;5072105;28;21015;-70
2023/06/09 12:17:49;;;;;;;5.20;3.77;;;30.80;44.10;;;;;;5072501;28;20443;-69
2023/06/09 12:20:28;;;;;;;4.10;3.80;;;32.00;38.40;;;;;;5072190;28;20467;-70
2023/06/09 12:22:57;;;;;;;5.50;4.40;;;33.20;41.70;;;;;;5070948;28;20497;-68
2023/06/09 12:25:30;;;;;;;3.97;3.63;;;34.50;37.80;;;;;;5072116;28;20439;-68
2023/06/09 12:28:13;;;;;;;3.60;3.37;;;35.40;36.60;;;;;;5071828;28;20929;-69
2023/06/09 12:30:44;;;;;;;3.80;3.53;;;36.00;32.90;;;;;;5071839;28;20490;-69
2023/06/09 12:33:14;;;;;;;10.73;3.97;;;36.40;36.00;;;;;;5070522;28;20554;-70
2023/06/09 12:35:43;;;;;;;4.00;3.70;;;36.60;35.10;;;;;;5071731;28;20457;-70
2023/06/09 12:38:16;;;;;;;4.30;3.43;;;36.40;34.00;;;;;;5071567;28;20455;-69
2023/06/09 12:40:49;;;;;;;4.00;3.70;;;34.50;32.40;;;;;;5071766;28;20491;-70
2023/06/09 12:43:19;;;;;;;6.07;3.57;;;33.00;39.00;;;;;;5070596;28;20572;-70
2023/06/09 12:45:48;;;;;;;4.37;3.97;;;33.00;38.30;;;;;;5071781;28;20490;-69
2023/06/09 12:48:16;;;;;;;3.67;3.37;;;33.70;35.70;;;;;;5071457;28;20576;-69
2023/06/09 12:50:44;;;;;;;4.00;3.70;;;34.30;35.80;;;;;;5070640;28;20498;-67